Airfield :
LOGIN :

Register | Disclaimer

   EN    FR    IT 

 










Legend :    VFR   Marginal VFR   IFR   Intensive IFR   Very Intensive IFR
Visi :
Ceiling :
>= 8 km
>= 3000ft
5 to 8 km
1000 to 3000 ft
1500m to 5 km
500 to 1000 ft
800 to 1500m
200 to 500 ft
< 800m
< 200 ft
Symbols :   Thunderstorms  Fog  Heavy snow  Heavy precipitations  Wind > 20 kt
SIGMETs :     Misc.  Thunderstorms  Icing  Turbulence  Mountain Waves  Volcanic Ashes







- Airport Elevation : 1046 ft
- IATA code : NUE


EDDN - Nuremberg

CURRENT METAR :
  • 210920Z 27005KT 220V310 9999 FEW028 17/10 Q1024 NOSIG

EXPIRED METARs :
  • 210850Z 29005KT 250V350 9999 FEW024 16/10 Q1025 NOSIG
  • 210820Z 25004KT 170V310 CAVOK 15/10 Q1025 NOSIG
  • 210759Z VRB02KT CAVOK 15/09 Q1025 BECMG 30005KT
  • 210750Z VRB02KT CAVOK 15/10 Q1025 BECMG 30005KT
  • 210726Z 17001KT CAVOK 14/10 Q1025 BECMG 30005KT
  • 210720Z 10002KT CAVOK 14/10 Q1025 BECMG 30005KT
  • 210650Z 09003KT 050V120 CAVOK 13/10 Q1025 BECMG 30005KT

TAF TAF EDDN
Valid from the 21 at 06:00 until the 22 at 06:00 UTC


210500Z 2106/2206 10003KT CAVOK
BECMG 2106/2108 30005KT
BECMG 2118/2121 10004KT
No reported NOTAMs for that airfield.



MET'MAP, your aeronautical weather chart ! - Copyright ORBIFLY December 2007 - Disclaimer

ORBIFLY MET'MAP TEAM :

Programming & Development : Alexandra Zaïnal
Concept & Development : Baudouin d'Aumeries
Co-Development & Prog : Marc-Olivier Méhu
Technical & hardware support : Manuel Goepfert

Contact : metmap@orbifly.com




SOURCES & CREDITS :

   NOAA